Time;durP1;ratioP1;P1;durP2;ratioP2;P2;SDS_P1;SDS_P2;PMS_P1;PMS_P2;Temp;Humidity;BMP_temperature;BMP_pressure;BME280_temperature;BME280_humidity;BME280_pressure;Samples;Min_cycle;Max_cycle;Signal;HPM_P1;HPM_P2
2022/08/09 00:02:28;;;;;;;;;;;;;;;20.63;79.00;101525.09;10066641;29;19932;-71
2022/08/09 00:07:32;;;;;;;;;;;;;;;20.56;79.50;101533.25;10065955;29;19928;-75
2022/08/09 00:12:48;;;;;;;;;;;;;;;20.51;80.16;101533.41;10066299;29;19939;-72
2022/08/09 00:17:54;;;;;;;;;;;;;;;20.48;81.48;101541.41;10065563;29;19928;-73
2022/08/09 00:23:13;;;;;;;;;;;;;;;20.45;81.57;101541.50;10065794;29;19936;-71
2022/08/09 00:28:38;;;;;;;;;;;;;;;20.44;81.06;101539.78;10065879;29;19938;-74
2022/08/09 00:33:42;;;;;;;;;;;;;;;20.39;80.77;101533.78;10064858;29;19964;-69
2022/08/09 00:38:53;;;;;;;;;;;;;;;20.38;81.19;101534.69;10064813;29;19928;-74
2022/08/09 00:43:57;;;;;;;;;;;;;;;20.27;81.50;101543.84;10064494;29;19934;-73
2022/08/09 00:49:20;;;;;;;;;;;;;;;20.22;81.15;101538.75;10064773;29;19934;-72
2022/08/09 00:54:24;;;;;;;;;;;;;;;20.13;81.25;101549.53;10063606;29;19934;-77
2022/08/09 00:59:40;;;;;;;;;;;;;;;20.17;81.28;101551.16;10064603;29;19928;-74
2022/08/09 01:04:52;;;;;;;;;;;;;;;20.14;81.86;101547.75;10064270;29;20267;-72
2022/08/09 01:09:59;;;;;;;;;;;;;;;20.11;82.19;101547.81;10064258;29;19934;-71
2022/08/09 01:15:05;;;;;;;;;;;;;;;20.13;82.93;101548.66;10064206;29;19991;-72
2022/08/09 01:20:20;;;;;;;;;;;;;;;20.04;82.26;101547.16;10063423;29;20362;-71
2022/08/09 01:25:33;;;;;;;;;;;;;;;19.94;82.86;101542.19;10063456;29;19928;-71
2022/08/09 01:30:46;;;;;;;;;;;;;;;19.86;83.99;101550.34;10063084;29;19928;-72
2022/08/09 01:35:59;;;;;;;;;;;;;;;19.79;84.04;101556.72;10062837;29;20056;-70
2022/08/09 01:41:04;;;;;;;;;;;;;;;19.71;83.77;101556.03;10062930;29;19948;-68
2022/08/09 01:46:09;;;;;;;;;;;;;;;19.66;83.73;101555.31;10062781;29;19928;-69
2022/08/09 01:51:21;;;;;;;;;;;;;;;19.60;84.08;101555.50;10062536;29;19942;-70
2022/08/09 01:56:28;;;;;;;;;;;;;;;19.57;84.99;101559.97;9724578;29;10000397;-72
2022/08/09 02:01:35;;;;;;;;;;;;;;;19.58;85.53;101557.31;10059318;29;20346;-70
2022/08/09 02:07:13;;;;;;;;;;;;;;;19.52;85.91;101554.81;10058636;29;19938;-71
2022/08/09 02:12:21;;;;;;;;;;;;;;;19.55;86.92;101555.59;10059401;29;19940;-72
2022/08/09 02:17:28;;;;;;;;;;;;;;;19.56;87.07;101567.00;10058663;29;20227;-70
2022/08/09 02:22:52;;;;;;;;;;;;;;;19.57;87.43;101557.34;10058668;29;20014;-75
2022/08/09 02:27:56;;;;;;;;;;;;;;;19.58;87.76;101562.56;10059024;29;20274;-71
2022/08/09 02:33:09;;;;;;;;;;;;;;;19.54;88.42;101553.88;10058447;29;20053;-70
2022/08/09 02:38:21;;;;;;;;;;;;;;;19.60;88.61;101565.16;10058341;29;19939;-71
2022/08/09 02:43:33;;;;;;;;;;;;;;;19.58;87.79;101565.22;10058137;29;20413;-71
2022/08/09 02:49:00;;;;;;;;;;;;;;;19.61;87.83;101567.75;10058117;29;20387;-73
2022/08/09 02:54:06;;;;;;;;;;;;;;;19.62;87.29;101568.63;10058272;29;19963;-70
2022/08/09 02:59:10;;;;;;;;;;;;;;;19.58;87.84;101566.97;10058526;29;19995;-73
2022/08/09 03:04:30;;;;;;;;;;;;;;;19.57;87.77;101563.47;10057955;29;19929;-72
2022/08/09 03:09:33;;;;;;;;;;;;;;;19.49;88.96;101568.09;10057927;29;19928;-72
2022/08/09 03:14:45;;;;;;;;;;;;;;;19.61;88.76;101572.13;10059826;29;19928;-72
2022/08/09 03:19:49;;;;;;;;;;;;;;;19.58;89.00;101578.38;10092152;29;19967;-73
2022/08/09 03:25:02;;;;;;;;;;;;;;;19.49;89.98;101581.25;10103363;29;19934;-73
2022/08/09 03:30:26;;;;;;;;;;;;;;;19.56;89.26;101585.44;10102852;29;19938;-72
2022/08/09 03:35:37;;;;;;;;;;;;;;;19.46;90.11;101582.22;10100901;29;19962;-72
2022/08/09 03:41:00;;;;;;;;;;;;;;;19.51;90.01;101576.81;10063875;29;19932;-75
2022/08/09 03:46:05;;;;;;;;;;;;;;;19.53;89.87;101583.75;10063910;29;20346;-73
2022/08/09 03:51:30;;;;;;;;;;;;;;;19.60;89.32;101583.59;10063604;29;19928;-71
2022/08/09 03:56:53;;;;;;;;;;;;;;;19.63;89.75;101587.00;10034257;29;19928;-71
2022/08/09 04:02:00;;;;;;;;;;;;;;;19.61;89.68;101591.44;10025092;29;19929;-70
2022/08/09 04:07:04;;;;;;;;;;;;;;;19.60;89.37;101591.50;10024878;29;19939;-72
2022/08/09 04:12:25;;;;;;;;;;;;;;;19.63;90.23;101587.00;10024844;29;19932;-74
2022/08/09 04:17:46;;;;;;;;;;;;;;;19.61;89.44;101588.81;10024477;29;19964;-72
2022/08/09 04:22:50;;;;;;;;;;;;;;;19.63;89.32;101597.56;10024540;29;19929;-71
2022/08/09 04:27:55;;;;;;;;;;;;;;;19.68;89.50;101598.28;10023485;29;19935;-70
2022/08/09 04:33:04;;;;;;;;;;;;;;;19.71;89.22;101595.56;10023958;29;20377;-73
2022/08/09 04:38:10;;;;;;;;;;;;;;;19.70;89.00;101587.69;10026972;29;20347;-70
2022/08/09 04:43:14;;;;;;;;;;;;;;;19.69;89.30;101596.53;10026807;29;19935;-70
2022/08/09 04:48:17;;;;;;;;;;;;;;;19.71;89.59;101600.81;10026541;29;19928;-71
2022/08/09 04:53:21;;;;;;;;;;;;;;;19.69;89.15;101601.78;10026267;29;20278;-75
2022/08/09 04:58:24;;;;;;;;;;;;;;;19.71;88.70;101602.63;10026030;29;19943;-71
2022/08/09 05:03:28;;;;;;;;;;;;;;;19.74;88.64;101600.75;10026022;29;19929;-71
2022/08/09 05:08:44;;;;;;;;;;;;;;;19.71;89.16;101608.72;10025644;29;19938;-69
2022/08/09 05:13:49;;;;;;;;;;;;;;;19.74;88.59;101616.56;10025412;29;20340;-72
2022/08/09 05:18:56;;;;;;;;;;;;;;;19.72;88.78;101621.00;10025106;29;20271;-71
2022/08/09 05:24:04;;;;;;;;;;;;;;;19.73;88.77;101621.84;10025352;29;19928;-71
2022/08/09 05:29:07;;;;;;;;;;;;;;;19.73;88.65;101629.75;9691173;29;10000860;-71
2022/08/09 05:34:23;;;;;;;;;;;;;;;19.74;88.40;101623.59;10060076;29;19932;-73
2022/08/09 05:39:35;;;;;;;;;;;;;;;19.80;87.74;101626.94;10059876;29;19958;-72
2022/08/09 05:44:46;;;;;;;;;;;;;;;19.85;88.13;101624.16;10059461;29;20032;-72
2022/08/09 05:49:53;;;;;;;;;;;;;;;19.89;87.66;101618.78;10059388;29;20338;-74
2022/08/09 05:55:18;;;;;;;;;;;;;;;19.93;88.57;101633.56;10059306;29;19939;-74
2022/08/09 06:00:23;;;;;;;;;;;;;;;20.05;87.66;101635.03;10059023;29;19943;-74
2022/08/09 06:05:28;;;;;;;;;;;;;;;20.09;87.10;101636.63;10059403;29;20463;-70
2022/08/09 06:10:52;;;;;;;;;;;;;;;20.07;87.01;101633.22;10058924;29;20347;-69
2022/08/09 06:15:55;;;;;;;;;;;;;;;20.18;86.91;101632.00;10058560;29;19975;-71
2022/08/09 06:21:02;;;;;;;;;;;;;;;20.23;87.42;101639.78;10058590;29;20358;-72
2022/08/09 06:26:09;;;;;;;;;;;;;;;20.32;86.54;101632.47;10058491;29;19939;-71
2022/08/09 06:31:12;;;;;;;;;;;;;;;20.38;86.92;101634.91;10058548;29;20425;-72
2022/08/09 06:36:15;;;;;;;;;;;;;;;20.41;86.33;101634.84;10058857;29;19928;-70
2022/08/09 06:41:21;;;;;;;;;;;;;;;20.38;85.61;101636.72;10058220;29;20069;-72
2022/08/09 06:46:46;;;;;;;;;;;;;;;20.54;85.84;101640.59;10054095;29;19939;-72
2022/08/09 06:51:51;;;;;;;;;;;;;;;20.61;85.85;101639.50;10063200;29;19991;-72
2022/08/09 06:56:55;;;;;;;;;;;;;;;20.73;86.36;101643.53;10065082;29;19936;-75
2022/08/09 07:01:59;;;;;;;;;;;;;;;20.71;85.07;101640.09;10065341;29;19936;-73
2022/08/09 07:07:06;;;;;;;;;;;;;;;20.72;85.40;101642.69;10065136;29;20425;-72
2022/08/09 07:12:31;;;;;;;;;;;;;;;20.83;84.95;101639.72;10064849;29;19938;-73
2022/08/09 07:17:43;;;;;;;;;;;;;;;20.94;84.68;101646.38;10064353;29;19979;-70
2022/08/09 07:23:03;;;;;;;;;;;;;;;21.06;84.18;101639.84;10064586;29;19939;-74
2022/08/09 07:28:22;;;;;;;;;;;;;;;21.25;83.64;101648.88;10063776;29;19928;-72
2022/08/09 07:33:30;;;;;;;;;;;;;;;21.36;83.38;101652.03;10064558;29;19935;-73
2022/08/09 07:38:54;;;;;;;;;;;;;;;21.39;84.03;101658.09;10063700;29;19960;-73
2022/08/09 07:44:05;;;;;;;;;;;;;;;21.39;83.73;101658.09;10063666;29;19939;-72
2022/08/09 07:49:08;;;;;;;;;;;;;;;21.43;83.93;101658.84;10063316;29;19938;-66
2022/08/09 07:54:17;;;;;;;;;;;;;;;21.53;82.79;101654.97;10063399;29;20020;-70
2022/08/09 07:59:33;;;;;;;;;;;;;;;21.58;81.57;101659.19;10063023;29;19931;-71
2022/08/09 08:04:54;;;;;;;;;;;;;;;21.64;79.81;101660.75;10062702;29;20339;-74
2022/08/09 08:09:57;;;;;;;;;;;;;;;21.75;78.91;101662.09;10062636;29;19938;-70
2022/08/09 08:15:15;;;;;;;;;;;;;;;21.95;79.31;101661.41;10062687;29;20524;-73
2022/08/09 08:20:19;;;;;;;;;;;;;;;22.15;79.01;101661.56;10061952;29;19928;-74
2022/08/09 08:25:32;;;;;;;;;;;;;;;22.29;77.88;101664.56;10062254;29;19932;-71
2022/08/09 08:30:49;;;;;;;;;;;;;;;22.36;77.13;101665.19;10048506;29;20007;-69
2022/08/09 08:35:53;;;;;;;;;;;;;;;22.51;76.07;101670.75;10023753;29;19929;-69
2022/08/09 08:41:05;;;;;;;;;;;;;;;22.66;75.96;101667.56;10055703;29;20437;-68
2022/08/09 08:46:13;;;;;;;;;;;;;;;22.75;74.92;101664.56;10061397;29;20266;-74
2022/08/09 08:51:36;;;;;;;;;;;;;;;22.89;74.33;101656.94;10061244;29;19932;-73
2022/08/09 08:56:44;;;;;;;;;;;;;;;23.04;73.11;101654.59;10061160;29;19975;-72
2022/08/09 09:01:51;;;;;;;;;;;;;;;23.14;72.90;101659.44;10061371;29;20351;-73
2022/08/09 09:07:02;;;;;;;;;;;;;;;23.33;72.10;101657.75;10061003;29;20020;-71
2022/08/09 09:12:09;;;;;;;;;;;;;;;23.41;69.45;101658.31;10060002;29;20071;-71
2022/08/09 09:17:21;;;;;;;;;;;;;;;23.58;68.25;101652.28;10060327;29;20258;-70
2022/08/09 09:22:24;;;;;;;;;;;;;;;23.76;67.78;101652.34;10060033;29;19928;-72
2022/08/09 09:27:30;;;;;;;;;;;;;;;23.94;66.90;101646.25;10060386;29;19938;-71
2022/08/09 09:33:02;;;;;;;;;;;;;;;24.08;66.60;101652.75;10060549;29;19938;-70
2022/08/09 09:38:21;;;;;;;;;;;;;;;24.15;65.71;101648.88;9695043;29;9999739;-73
2022/08/09 09:43:38;;;;;;;;;;;;;;;24.30;64.67;101643.75;10059617;29;20026;-72
2022/08/09 09:49:04;;;;;;;;;;;;;;;24.51;64.81;101642.75;10059242;29;20273;-73
2022/08/09 09:54:09;;;;;;;;;;;;;;;24.67;63.79;101635.78;10062322;29;19928;-72
2022/08/09 09:59:33;;;;;;;;;;;;;;;24.64;63.58;101633.25;10062032;29;19928;-69
2022/08/09 10:04:39;;;;;;;;;;;;;;;24.96;61.51;101632.59;10062108;29;19975;-71
2022/08/09 10:09:46;;;;;;;;;;;;;;;24.85;60.81;101631.41;10061728;29;19928;-73
2022/08/09 10:14:50;;;;;;;;;;;;;;;24.90;60.12;101634.72;10061857;29;20265;-73
2022/08/09 10:19:55;;;;;;;;;;;;;;;24.83;59.35;101633.28;10061575;29;19938;-70
2022/08/09 10:25:01;;;;;;;;;;;;;;;24.74;60.14;101637.25;10064788;29;19935;-72
2022/08/09 10:30:15;;;;;;;;;;;;;;;24.55;61.35;101633.72;10069860;29;19928;-69
2022/08/09 10:35:39;;;;;;;;;;;;;;;24.42;63.01;101635.19;10069020;29;20254;-71
2022/08/09 10:40:45;;;;;;;;;;;;;;;24.36;61.60;101642.59;10068831;29;19969;-70
2022/08/09 10:45:52;;;;;;;;;;;;;;;24.25;61.75;101628.94;10069314;29;19936;-71
2022/08/09 10:51:13;;;;;;;;;;;;;;;24.21;63.03;101630.03;10068371;29;19938;-71
2022/08/09 10:56:18;;;;;;;;;;;;;;;24.25;64.58;101626.28;10068306;29;19938;-70
2022/08/09 11:01:39;;;;;;;;;;;;;;;24.31;64.06;101629.56;10067964;29;19928;-72
2022/08/09 11:07:21;;;;;;;;;;;;;;;24.34;63.61;101625.88;10068127;29;19948;-73
2022/08/09 11:12:26;;;;;;;;;;;;;;;24.49;62.05;101626.03;10067823;29;19928;-76
2022/08/09 11:17:50;;;;;;;;;;;;;;;24.71;59.05;101618.78;10068104;29;19928;-71
2022/08/09 11:23:05;;;;;;;;;;;;;;;25.07;58.25;101616.13;10072147;29;20019;-73
2022/08/09 11:28:33;;;;;;;;;;;;;;;25.30;57.32;101617.63;10067770;29;19928;-71
2022/08/09 11:33:57;;;;;;;;;;;;;;;25.44;55.75;101616.00;10066992;29;19928;-69
2022/08/09 11:39:01;;;;;;;;;;;;;;;25.58;56.83;101607.31;10066754;29;19939;-71
2022/08/09 11:44:07;;;;;;;;;;;;;;;26.06;55.82;101599.41;9729058;29;9999741;-70
2022/08/09 11:49:10;;;;;;;;;;;;;;;26.28;56.00;101601.78;10063467;29;20355;-68
2022/08/09 11:54:19;;;;;;;;;;;;;;;26.25;55.07;101604.63;10063228;29;19935;-69
2022/08/09 11:59:36;;;;;;;;;;;;;;;27.15;53.04;101594.91;10063691;29;19928;-70
2022/08/09 12:04:40;;;;;;;;;;;;;;;28.40;49.58;101583.59;10064938;29;19995;-72
2022/08/09 12:09:44;;;;;;;;;;;;;;;29.15;47.59;101583.94;10065801;29;20020;-70
2022/08/09 12:14:54;;;;;;;;;;;;;;;29.71;46.72;101574.72;10065628;29;20025;-72
2022/08/09 12:20:12;;;;;;;;;;;;;;;30.34;45.08;101572.81;10065783;29;19991;-69
2022/08/09 12:25:19;;;;;;;;;;;;;;;30.91;43.76;101567.66;10065180;29;19984;-71
2022/08/09 12:30:41;;;;;;;;;;;;;;;31.15;42.63;101560.41;10065055;29;19928;-71
2022/08/09 12:35:45;;;;;;;;;;;;;;;31.52;42.34;101555.78;10065248;29;19947;-71
2022/08/09 12:40:52;;;;;;;;;;;;;;;31.17;41.58;101552.25;10064330;29;19987;-71
2022/08/09 12:45:58;;;;;;;;;;;;;;;30.91;41.36;101550.72;10064501;29;19928;-74
2022/08/09 12:51:03;;;;;;;;;;;;;;;31.35;41.41;101549.06;10063871;29;19936;-72
2022/08/09 12:56:10;;;;;;;;;;;;;;;31.58;40.81;101531.97;10064198;29;19928;-72
2022/08/09 13:01:36;;;;;;;;;;;;;;;31.83;41.02;101527.34;10063830;29;20262;-73
2022/08/09 13:06:50;;;;;;;;;;;;;;;30.05;42.59;101539.19;10064248;29;19984;-75
2022/08/09 13:12:01;;;;;;;;;;;;;;;28.93;43.87;101532.84;10063474;29;20377;-74
2022/08/09 13:17:06;;;;;;;;;;;;;;;27.88;43.78;101543.31;10064328;29;19929;-69
2022/08/09 13:22:12;;;;;;;;;;;;;;;27.17;45.70;101550.38;10063062;29;20015;-71
2022/08/09 13:27:36;;;;;;;;;;;;;;;26.79;47.33;101559.75;10063342;29;19939;-72
2022/08/09 13:32:53;;;;;;;;;;;;;;;26.53;48.80;101552.38;10062499;29;19939;-68
2022/08/09 13:37:56;;;;;;;;;;;;;;;26.35;49.45;101550.75;10062755;29;19928;-69
2022/08/09 13:43:00;;;;;;;;;;;;;;;26.10;50.31;101556.59;10062130;29;20323;-67
2022/08/09 13:48:08;;;;;;;;;;;;;;;25.94;50.90;101554.78;10062426;29;19938;-68
2022/08/09 13:53:12;;;;;;;;;;;;;;;25.99;51.36;101556.28;9376562;29;10000541;-67
2022/08/09 13:58:18;;;;;;;;;;;;;;;26.61;51.01;101560.78;10059398;29;20155;-72
2022/08/09 14:03:22;;;;;;;;;;;;;;;26.31;51.73;101551.00;10058819;29;20277;-69
2022/08/09 14:08:46;;;;;;;;;;;;;;;26.00;52.56;101552.69;10058909;29;19935;-71
2022/08/09 14:13:49;;;;;;;;;;;;;;;26.71;50.29;101546.03;10058657;29;19942;-74
2022/08/09 14:19:13;;;;;;;;;;;;;;;27.21;50.25;101546.53;10058364;29;19950;-75
2022/08/09 14:24:22;;;;;;;;;;;;;;;27.30;49.80;101538.03;10058865;29;19956;-76
2022/08/09 14:29:35;;;;;;;;;;;;;;;27.36;49.58;101533.28;10058744;29;20119;-71
2022/08/09 14:35:00;;;;;;;;;;;;;;;27.45;49.80;101530.91;10057736;29;20423;-71
2022/08/09 14:40:03;;;;;;;;;;;;;;;27.49;48.97;101527.09;10058225;29;19935;-77
2022/08/09 14:45:08;;;;;;;;;;;;;;;27.37;48.61;101527.84;10057774;29;20572;-77
2022/08/09 14:50:34;;;;;;;;;;;;;;;27.30;48.95;101530.03;10057860;29;20023;-75
2022/08/09 14:55:39;;;;;;;;;;;;;;;27.17;48.90;101529.03;10057864;29;20243;-71
2022/08/09 15:00:44;;;;;;;;;;;;;;;27.07;48.87;101521.69;10057677;29;20286;-70
2022/08/09 15:05:52;;;;;;;;;;;;;;;26.95;49.49;101525.94;10043125;29;20282;-73
2022/08/09 15:11:00;;;;;;;;;;;;;;;26.77;49.55;101520.81;10021789;29;20372;-71
2022/08/09 15:16:09;;;;;;;;;;;;;;;26.51;50.97;101521.47;10026649;29;20151;-70
2022/08/09 15:21:14;;;;;;;;;;;;;;;25.93;51.42;101511.38;10026421;29;20031;-74
2022/08/09 15:26:37;;;;;;;;;;;;;;;25.71;52.62;101524.16;10081274;29;19938;-73
2022/08/09 15:31:48;;;;;;;;;;;;;;;25.71;53.17;101510.84;10076737;29;19928;-81
2022/08/09 15:36:52;;;;;;;;;;;;;;;25.73;52.86;101521.41;10063975;29;19960;-72
2022/08/09 15:41:56;;;;;;;;;;;;;;;25.66;52.26;101520.84;10063750;29;20281;-72
2022/08/09 15:46:59;;;;;;;;;;;;;;;25.48;53.00;101521.84;10062228;29;19928;-70
2022/08/09 15:52:04;;;;;;;;;;;;;;;25.44;53.49;101519.44;10047063;29;20239;-72
2022/08/09 15:57:08;;;;;;;;;;;;;;;25.30;54.33;101525.44;10025501;29;20015;-72
2022/08/09 16:02:11;;;;;;;;;;;;;;;25.00;54.84;101525.25;10024864;29;19933;-71
2022/08/09 16:07:16;;;;;;;;;;;;;;;24.77;55.02;101533.50;10047635;29;19928;-71
2022/08/09 16:12:21;;;;;;;;;;;;;;;24.61;55.95;101532.50;10062925;29;19928;-71
2022/08/09 16:17:28;;;;;;;;;;;;;;;24.53;56.32;101534.69;10062544;29;19928;-72
2022/08/09 16:22:32;;;;;;;;;;;;;;;24.39;56.52;101530.97;10061801;29;19943;-69
2022/08/09 16:27:37;;;;;;;;;;;;;;;24.23;55.69;101543.28;10062467;29;19928;-70
2022/08/09 16:38:04;;;;;;;;;;;;;;;23.99;56.02;101539.94;10061681;29;19938;-73
2022/08/09 16:43:08;;;;;;;;;;;;;;;23.93;56.50;101532.25;10061255;29;19938;-72
2022/08/09 16:48:12;;;;;;;;;;;;;;;23.82;57.25;101530.09;10061434;29;19928;-72
2022/08/09 16:53:36;;;;;;;;;;;;;;;23.77;58.07;101541.84;10061324;29;19942;-71
2022/08/09 16:59:00;;;;;;;;;;;;;;;23.65;59.60;101537.09;10060851;29;19929;-71
2022/08/09 17:04:12;;;;;;;;;;;;;;;23.55;58.99;101549.06;10060890;29;19932;-70
2022/08/09 17:09:33;;;;;;;;;;;;;;;23.47;59.36;101553.84;10060294;29;20281;-70
2022/08/09 17:14:48;;;;;;;;;;;;;;;;;;10060043;29;19947;-68
2022/08/09 17:19:56;;;;;;;;;;;;;;;23.14;60.45;101557.91;10060436;29;19932;-67
2022/08/09 17:25:21;;;;;;;;;;;;;;;23.03;60.15;101565.44;10060319;29;20333;-66
2022/08/09 17:30:28;;;;;;;;;;;;;;;22.93;61.14;101568.47;10060001;29;20313;-66
2022/08/09 17:35:33;;;;;;;;;;;;;;;22.85;62.28;101573.22;10059479;29;19975;-66
2022/08/09 17:40:37;;;;;;;;;;;;;;;22.72;63.33;101576.44;10059218;29;19928;-66
2022/08/09 17:45:40;;;;;;;;;;;;;;;22.64;64.11;101576.75;10058438;29;20330;-69
2022/08/09 17:51:03;;;;;;;;;;;;;;;22.46;64.77;101585.41;10050852;29;20375;-71
2022/08/09 17:56:22;;;;;;;;;;;;;;;22.50;65.10;101579.03;10021048;29;19939;-71
2022/08/09 18:01:30;;;;;;;;;;;;;;;22.50;65.37;101584.34;10020981;29;20351;-73
2022/08/09 18:06:53;;;;;;;;;;;;;;;22.37;66.07;101584.88;10022135;29;19929;-67
2022/08/09 18:12:00;;;;;;;;;;;;;;;22.37;67.37;101588.41;10021614;29;20007;-72
2022/08/09 18:17:17;;;;;;;;;;;;;;;22.26;68.23;101590.59;10022541;29;19932;-70
2022/08/09 18:22:40;;;;;;;;;;;;;;;22.20;70.16;101593.47;10022229;29;19997;-74
2022/08/09 18:27:57;;;;;;;;;;;;;;;22.07;71.43;101602.78;10023677;29;19936;-71
2022/08/09 18:33:07;;;;;;;;;;;;;;;21.98;73.34;101605.78;10043708;29;19936;-70
2022/08/09 18:38:15;;;;;;;;;;;;;;;21.89;73.98;101608.78;10061636;29;19934;-71
2022/08/09 18:43:19;;;;;;;;;;;;;;;21.84;74.58;101610.72;10061273;29;20258;-71
2022/08/09 18:48:24;;;;;;;;;;;;;;;21.73;75.54;101615.47;10067970;29;20023;-73
2022/08/09 18:53:34;;;;;;;;;;;;;;;21.66;76.19;101608.69;10068645;29;20003;-70
2022/08/09 18:58:58;;;;;;;;;;;;;;;21.59;76.97;101612.47;10067179;29;19939;-71
2022/08/09 19:04:05;;;;;;;;;;;;;;;21.50;77.13;101613.66;10068163;29;19967;-71
2022/08/09 19:09:10;;;;;;;;;;;;;;;21.50;77.80;101615.47;10068631;29;20007;-69
2022/08/09 19:14:16;;;;;;;;;;;;;;;21.44;78.54;101621.81;10068310;29;19939;-73
2022/08/09 19:19:31;;;;;;;;;;;;;;;21.39;79.34;101621.09;9731185;29;10000070;-71
2022/08/09 19:24:44;;;;;;;;;;;;;;;21.35;79.92;101623.88;10065250;29;19932;-72
2022/08/09 19:30:10;;;;;;;;;;;;;;;21.38;79.90;101621.16;10064391;29;19939;-71
2022/08/09 19:35:29;;;;;;;;;;;;;;;21.37;79.78;101624.69;10090186;29;19939;-70
2022/08/09 19:40:52;;;;;;;;;;;;;;;21.39;80.41;101625.50;10102157;29;19934;-74
2022/08/09 19:45:57;;;;;;;;;;;;;;;21.34;81.25;101622.16;10102314;29;19935;-71
2022/08/09 19:51:00;;;;;;;;;;;;;;;21.33;82.08;101623.09;10102767;29;19928;-71
2022/08/09 19:56:03;;;;;;;;;;;;;;;21.24;81.83;101620.75;10102000;29;20392;-71
2022/08/09 20:01:10;;;;;;;;;;;;;;;21.17;82.16;101620.13;10101741;29;20364;-71
2022/08/09 20:06:13;;;;;;;;;;;;;;;20.99;84.05;101622.47;10101566;29;19932;-70
2022/08/09 20:11:27;;;;;;;;;;;;;;;21.11;83.18;101627.34;10086128;29;19938;-68
2022/08/09 20:16:48;;;;;;;;;;;;;;;20.99;83.97;101622.47;10063594;29;19939;-71
2022/08/09 20:21:56;;;;;;;;;;;;;;;20.99;83.91;101620.72;10038946;29;19928;-69
2022/08/09 20:27:03;;;;;;;;;;;;;;;20.87;84.63;101628.13;10024954;29;20068;-67
2022/08/09 20:32:12;;;;;;;;;;;;;;;20.77;85.91;101621.41;10024194;29;19939;-69
2022/08/09 20:37:36;;;;;;;;;;;;;;;20.71;85.43;101625.09;10023977;29;19932;-70
2022/08/09 20:42:59;;;;;;;;;;;;;;;20.71;85.30;101619.81;10023834;29;20266;-71
2022/08/09 20:48:24;;;;;;;;;;;;;;;20.64;85.89;101620.91;10023992;29;20529;-71
2022/08/09 20:53:32;;;;;;;;;;;;;;;20.47;87.06;101621.47;10023467;29;19928;-70
2022/08/09 20:58:40;;;;;;;;;;;;;;;20.49;86.87;101619.63;10022964;29;20244;-69
2022/08/09 21:03:47;;;;;;;;;;;;;;;20.44;87.10;101620.69;10022847;29;19986;-71
2022/08/09 21:09:10;;;;;;;;;;;;;;;20.39;87.14;101618.19;10022219;29;19939;-71
2022/08/09 21:14:16;;;;;;;;;;;;;;;20.35;87.12;101623.59;10022799;29;20325;-70
2022/08/09 21:19:20;;;;;;;;;;;;;;;20.31;87.42;101620.19;10024243;29;20361;-70
2022/08/09 21:30:01;;;;;;;;;;;;;;;20.24;87.42;101623.91;10024845;29;19933;-75
2022/08/09 21:35:06;;;;;;;;;;;;;;;20.19;87.51;101631.09;10025021;29;19964;-74
2022/08/09 21:40:09;;;;;;;;;;;;;;;20.10;88.04;101633.13;10024995;29;19961;-72
2022/08/09 21:45:14;;;;;;;;;;;;;;;20.11;87.75;101637.47;10024706;29;19932;-72
2022/08/09 21:50:20;;;;;;;;;;;;;;;20.02;87.83;101638.59;10025246;29;19939;-74
2022/08/09 21:55:40;;;;;;;;;;;;;;;19.94;88.21;101643.22;10024818;29;19939;-75
2022/08/09 22:00:48;;;;;;;;;;;;;;;19.89;88.70;101642.50;10024419;29;19933;-74
2022/08/09 22:05:56;;;;;;;;;;;;;;;19.86;88.71;101644.34;10024238;29;19932;-72
2022/08/09 22:10:59;;;;;;;;;;;;;;;19.80;89.12;101637.47;10024922;29;20347;-75
2022/08/09 22:16:22;;;;;;;;;;;;;;;19.75;89.11;101641.13;10023894;29;20343;-70
2022/08/09 22:21:28;;;;;;;;;;;;;;;19.70;89.32;101630.72;10023214;29;19928;-74
2022/08/09 22:26:51;;;;;;;;;;;;;;;19.70;89.00;101636.00;10023584;29;19928;-74
2022/08/09 22:31:54;;;;;;;;;;;;;;;19.62;89.37;101634.47;10023640;29;19989;-70
2022/08/09 22:37:00;;;;;;;;;;;;;;;19.58;89.51;101627.56;10023612;29;19992;-74
2022/08/09 22:42:04;;;;;;;;;;;;;;;19.49;90.38;101621.63;10023144;29;19929;-73
2022/08/09 22:47:23;;;;;;;;;;;;;;;19.53;90.63;101623.25;9700882;29;9999763;-71
2022/08/09 22:52:47;;;;;;;;;;;;;;;19.40;91.58;101619.22;10058206;29;20389;-76
2022/08/09 22:57:56;;;;;;;;;;;;;;;19.31;91.92;101626.53;10058184;29;20282;-74
2022/08/09 23:03:02;;;;;;;;;;;;;;;19.27;91.87;101617.81;10058245;29;19934;-75
2022/08/09 23:13:37;;;;;;;;;;;;;;;19.20;92.10;101621.50;10059297;29;19928;-72
2022/08/09 23:18:40;;;;;;;;;;;;;;;19.21;91.86;101617.06;10061029;29;19932;-72
2022/08/09 23:23:44;;;;;;;;;;;;;;;19.18;92.31;101619.78;10060781;29;20342;-72
2022/08/09 23:29:10;;;;;;;;;;;;;;;19.19;92.18;101625.00;10060899;29;19936;-72
2022/08/09 23:34:13;;;;;;;;;;;;;;;19.10;92.49;101622.59;10066936;29;19939;-75
2022/08/09 23:39:17;;;;;;;;;;;;;;;19.02;93.35;101621.06;10067542;29;20019;-75
2022/08/09 23:44:20;;;;;;;;;;;;;;;18.99;93.77;101629.91;10066880;29;19928;-71
2022/08/09 23:49:23;;;;;;;;;;;;;;;19.02;93.78;101637.72;10067063;29;19939;-73
2022/08/09 23:54:28;;;;;;;;;;;;;;;18.90;95.04;101622.22;10067225;29;20354;-73
